Time;durP1;ratioP1;P1;durP2;ratioP2;P2;SDS_P1;SDS_P2;PMS_P1;PMS_P2;Temp;Humidity;BMP_temperature;BMP_pressure;BME280_temperature;BME280_humidity;BME280_pressure;Samples;Min_cycle;Max_cycle;Signal;HPM_P1;HPM_P2
2022/08/19 00:02:45;;;;;;;16.10;14.50;;;20.60;99.90;;;;;;5057489;28;20420;-72
2022/08/19 00:05:31;;;;;;;14.73;12.97;;;20.70;99.90;;;;;;5061177;28;20948;-71
2022/08/19 00:08:17;;;;;;;15.30;13.80;;;20.70;99.90;;;;;;5055193;28;20501;-71
2022/08/19 00:11:03;;;;;;;17.03;14.10;;;20.70;99.90;;;;;;5053805;28;20415;-71
2022/08/19 00:13:49;;;;;;;17.43;14.73;;;20.80;99.90;;;;;;5059166;28;20447;-71
2022/08/19 00:16:36;;;;;;;18.43;14.87;;;20.90;99.90;;;;;;5050526;28;20455;-71
2022/08/19 00:19:24;;;;;;;19.10;14.20;;;20.90;99.90;;;;;;5055843;28;20420;-72
2022/08/19 00:22:09;;;;;;;15.63;14.13;;;20.90;99.90;;;;;;5061385;28;20424;-72
2022/08/19 00:24:55;;;;;;;16.00;14.47;;;20.90;99.90;;;;;;5051203;28;20459;-72
2022/08/19 00:27:41;;;;;;;15.30;13.73;;;20.80;99.90;;;;;;5052851;28;20512;-71
2022/08/19 00:30:27;;;;;;;15.70;14.10;;;20.90;99.90;;;;;;5055360;28;20424;-71
2022/08/19 00:33:13;;;;;;;15.90;14.30;;;20.90;99.90;;;;;;5061636;28;20501;-72
2022/08/19 00:36:01;;;;;;;15.77;14.20;;;20.90;99.90;;;;;;5048073;28;20523;-72
2022/08/19 00:38:47;;;;;;;16.20;14.50;;;20.80;99.90;;;;;;5055444;28;20434;-71
2022/08/19 00:41:33;;;;;;;17.23;14.37;;;20.80;99.90;;;;;;5055322;28;20431;-72
2022/08/19 00:44:21;;;;;;;21.73;13.60;;;20.80;99.90;;;;;;5056957;28;21033;-70
2022/08/19 00:47:07;;;;;;;18.00;14.90;;;20.80;99.90;;;;;;5051225;28;20414;-71
2022/08/19 00:49:57;;;;;;;16.33;14.30;;;20.80;99.90;;;;;;5054123;28;20405;-71
2022/08/19 00:52:48;;;;;;;15.20;13.70;;;20.80;99.90;;;;;;5057109;28;20610;-70
2022/08/19 00:55:34;;;;;;;17.10;14.13;;;20.80;99.90;;;;;;5057536;28;20546;-73
2022/08/19 00:58:23;;;;;;;16.30;14.63;;;20.80;99.90;;;;;;5059382;28;20435;-71
2022/08/19 01:01:08;;;;;;;16.00;14.30;;;20.80;99.90;;;;;;5056866;28;21147;-71
2022/08/19 01:03:54;;;;;;;18.97;15.70;;;20.80;99.90;;;;;;5057163;28;21055;-71
2022/08/19 01:06:41;;;;;;;17.83;14.90;;;20.70;99.90;;;;;;5049288;28;21120;-71
2022/08/19 01:09:29;;;;;;;15.80;14.20;;;20.70;99.90;;;;;;5053250;28;20548;-71
2022/08/19 01:12:16;;;;;;;17.83;16.03;;;20.70;99.90;;;;;;5054459;28;20489;-72
2022/08/19 01:15:01;;;;;;;21.47;15.67;;;20.60;99.90;;;;;;5052165;28;20416;-72
2022/08/19 01:17:48;;;;;;;16.47;14.87;;;20.70;99.90;;;;;;5053015;28;20958;-71
2022/08/19 01:20:34;;;;;;;18.80;15.90;;;20.70;99.90;;;;;;5053430;28;20431;-71
2022/08/19 01:23:42;;;;;;;17.17;15.33;;;20.70;99.90;;;;;;5058758;28;20804;-70
2022/08/19 01:26:28;;;;;;;18.87;15.60;;;20.80;99.90;;;;;;5051618;28;20450;-72
2022/08/19 01:29:14;;;;;;;15.83;14.13;;;20.80;99.90;;;;;;5052331;28;20446;-71
2022/08/19 01:32:02;;;;;;;16.77;15.07;;;20.80;99.90;;;;;;5063067;28;20471;-71
2022/08/19 01:34:48;;;;;;;18.60;14.43;;;20.90;99.90;;;;;;5046946;28;20582;-72
2022/08/19 01:37:43;;;;;;;15.80;14.20;;;21.00;99.90;;;;;;5054321;28;20432;-71
2022/08/19 01:40:33;;;;;;;20.73;15.07;;;20.90;99.90;;;;;;5055932;28;20427;-71
2022/08/19 01:43:19;;;;;;;16.17;14.53;;;20.80;99.90;;;;;;5055500;28;20984;-71
2022/08/19 01:46:05;;;;;;;15.90;13.77;;;20.80;99.90;;;;;;5053446;28;20602;-72
2022/08/19 01:48:51;;;;;;;15.93;14.27;;;20.80;99.90;;;;;;5057558;28;20431;-71
2022/08/19 01:51:37;;;;;;;15.83;14.37;;;20.70;99.90;;;;;;5055990;28;20434;-71
2022/08/19 01:54:24;;;;;;;16.83;15.00;;;20.80;99.90;;;;;;5064094;28;20513;-71
2022/08/19 01:57:14;;;;;;;21.50;14.10;;;20.70;99.90;;;;;;5055990;28;20423;-71
2022/08/19 02:00:04;;;;;;;15.87;14.37;;;20.70;99.90;;;;;;5056161;28;21084;-71
2022/08/19 02:02:50;;;;;;;17.00;15.27;;;20.70;99.90;;;;;;5052264;28;20419;-71
2022/08/19 02:05:36;;;;;;;20.20;15.10;;;20.70;99.90;;;;;;5050333;28;20498;-71
2022/08/19 02:08:22;;;;;;;17.77;15.83;;;20.80;99.90;;;;;;5045527;28;20435;-71
2022/08/19 02:11:08;;;;;;;16.50;14.90;;;20.80;99.90;;;;;;5055961;28;20473;-71
2022/08/19 02:13:56;;;;;;;17.33;15.57;;;20.90;99.90;;;;;;5058360;28;20565;-72
2022/08/19 02:16:42;;;;;;;16.50;14.63;;;20.90;99.90;;;;;;5050766;28;20571;-71
2022/08/19 02:19:27;;;;;;;18.40;16.40;;;21.00;99.90;;;;;;5060348;28;20427;-71
2022/08/19 02:22:13;;;;;;;16.20;14.50;;;21.00;99.90;;;;;;5059770;28;20423;-71
2022/08/19 02:24:58;;;;;;;15.73;14.13;;;20.90;99.90;;;;;;5055610;28;20471;-71
2022/08/19 02:27:44;;;;;;;17.53;14.87;;;20.80;99.90;;;;;;5060018;28;20444;-71
2022/08/19 02:30:31;;;;;;;16.07;14.37;;;20.70;99.90;;;;;;5064013;28;20430;-71
2022/08/19 02:33:17;;;;;;;17.97;14.97;;;20.70;99.90;;;;;;5057497;28;20836;-71
2022/08/19 02:36:05;;;;;;;17.03;15.27;;;20.80;99.90;;;;;;5050629;28;20452;-71
2022/08/19 02:38:49;;;;;;;17.20;14.60;;;20.60;99.90;;;;;;5056537;28;20420;-72
2022/08/19 02:41:35;;;;;;;17.50;15.67;;;20.70;99.90;;;;;;5060553;28;20466;-70
2022/08/19 02:44:21;;;;;;;18.90;16.60;;;20.70;99.90;;;;;;5052792;28;20455;-71
2022/08/19 02:47:08;;;;;;;17.10;15.40;;;20.70;99.90;;;;;;5056453;28;20427;-70
2022/08/19 02:49:54;;;;;;;18.03;16.13;;;20.70;99.90;;;;;;5066059;28;20938;-71
2022/08/19 02:52:40;;;;;;;18.37;16.47;;;20.60;99.90;;;;;;5056359;28;20613;-71
2022/08/19 02:55:25;;;;;;;17.83;15.73;;;20.60;99.90;;;;;;5045884;28;20907;-71
2022/08/19 02:58:11;;;;;;;17.67;15.97;;;20.60;99.90;;;;;;5056988;28;20427;-71
2022/08/19 03:00:58;;;;;;;17.60;15.77;;;20.70;99.90;;;;;;5055917;28;20423;-70
2022/08/19 03:03:46;;;;;;;19.37;16.13;;;20.80;99.90;;;;;;5054203;28;20447;-71
2022/08/19 03:06:32;;;;;;;16.87;15.17;;;20.80;99.90;;;;;;5050749;28;20506;-71
2022/08/19 03:09:20;;;;;;;17.93;14.67;;;20.80;99.90;;;;;;5061310;28;20431;-71
2022/08/19 03:12:06;;;;;;;17.05;15.35;;;20.80;99.90;;;;;;5059266;28;20939;-71
2022/08/19 03:14:52;;;;;;;25.40;14.53;;;20.70;99.90;;;;;;5050201;28;20478;-72
2022/08/19 03:17:38;;;;;;;16.67;15.00;;;20.60;99.90;;;;;;5058805;28;20426;-72
2022/08/19 03:20:25;;;;;;;21.17;16.67;;;20.50;99.90;;;;;;5059009;28;20788;-71
2022/08/19 03:23:13;;;;;;;19.43;16.30;;;20.40;99.90;;;;;;5062662;28;20438;-71
2022/08/19 03:25:59;;;;;;;18.40;16.50;;;20.40;99.90;;;;;;5056973;28;20467;-70
2022/08/19 03:28:47;;;;;;;17.57;15.03;;;20.50;99.90;;;;;;5057174;28;20427;-71
2022/08/19 03:31:33;;;;;;;18.50;16.63;;;20.50;99.90;;;;;;5065809;28;20515;-71
2022/08/19 03:34:22;;;;;;;22.70;16.80;;;20.30;99.90;;;;;;5049656;28;20475;-71
2022/08/19 03:37:12;;;;;;;19.07;16.53;;;20.10;99.90;;;;;;5058482;28;20783;-71
2022/08/19 03:39:57;;;;;;;18.50;16.60;;;20.00;99.90;;;;;;5060902;28;20423;-71
2022/08/19 03:42:43;;;;;;;17.93;16.03;;;19.80;99.90;;;;;;5056055;28;20447;-70
2022/08/19 03:45:28;;;;;;;17.63;15.80;;;19.90;99.90;;;;;;5056494;28;20452;-71
2022/08/19 03:48:15;;;;;;;17.23;15.47;;;20.00;99.90;;;;;;5058368;28;21070;-72
2022/08/19 03:51:02;;;;;;;19.13;16.87;;;20.10;99.90;;;;;;5057659;28;20394;-71
2022/08/19 03:53:49;;;;;;;18.30;16.27;;;20.10;99.90;;;;;;5057374;28;20487;-72
2022/08/19 03:56:36;;;;;;;17.03;15.33;;;20.10;99.90;;;;;;5052707;28;20793;-71
2022/08/19 03:59:25;;;;;;;18.60;14.83;;;20.10;99.90;;;;;;5056988;28;20590;-72
2022/08/19 04:02:12;;;;;;;20.70;15.73;;;20.00;99.90;;;;;;5055616;28;20904;-71
2022/08/19 04:04:58;;;;;;;18.30;15.90;;;19.90;99.90;;;;;;5049504;28;20467;-72
2022/08/19 04:07:44;;;;;;;17.60;15.80;;;19.90;99.90;;;;;;5062020;28;20415;-72
2022/08/19 04:10:31;;;;;;;18.40;16.00;;;19.80;99.90;;;;;;5052341;28;20423;-71
2022/08/19 04:13:18;;;;;;;22.00;16.20;;;19.70;99.90;;;;;;5059437;28;21052;-71
2022/08/19 04:16:04;;;;;;;18.67;16.70;;;19.70;99.90;;;;;;5048593;28;20423;-72
2022/08/19 04:18:50;;;;;;;18.27;15.47;;;19.70;99.90;;;;;;5055421;28;20809;-72
2022/08/19 04:21:35;;;;;;;19.13;16.73;;;19.80;99.90;;;;;;5057601;28;20521;-71
2022/08/19 04:24:22;;;;;;;16.83;14.20;;;19.90;99.90;;;;;;5054915;28;20458;-71
2022/08/19 04:27:09;;;;;;;19.07;17.07;;;19.90;99.90;;;;;;5062640;28;20482;-71
2022/08/19 04:29:55;;;;;;;18.23;16.20;;;19.90;99.90;;;;;;5055381;28;20517;-72
2022/08/19 04:32:43;;;;;;;16.60;14.70;;;20.00;99.90;;;;;;5058794;28;20435;-72
2022/08/19 04:35:28;;;;;;;17.90;16.10;;;20.00;99.90;;;;;;5056239;28;21075;-71
2022/08/19 04:38:15;;;;;;;17.90;15.80;;;20.00;99.90;;;;;;5060811;28;21034;-72
2022/08/19 04:44:09;;;;;;;19.40;16.00;;;19.90;99.90;;;;;;5050412;28;20836;-71
2022/08/19 04:46:55;;;;;;;19.30;16.10;;;19.90;99.90;;;;;;5055651;28;20428;-72
2022/08/19 04:49:41;;;;;;;19.13;16.00;;;19.90;99.90;;;;;;5062403;28;20431;-71
2022/08/19 04:52:26;;;;;;;17.30;15.40;;;19.90;99.90;;;;;;5057161;28;20431;-71
2022/08/19 04:55:13;;;;;;;16.77;14.83;;;19.90;99.90;;;;;;5055568;28;20436;-71
2022/08/19 04:57:59;;;;;;;18.13;16.17;;;19.90;99.90;;;;;;5057092;28;20585;-71
2022/08/19 05:00:46;;;;;;;16.80;15.07;;;20.00;99.90;;;;;;5057973;28;20428;-72
2022/08/19 05:03:33;;;;;;;17.97;14.50;;;20.00;99.90;;;;;;5053347;28;21015;-71
2022/08/19 05:06:20;;;;;;;17.57;15.73;;;20.00;99.90;;;;;;5054051;28;20442;-72
2022/08/19 05:09:06;;;;;;;20.53;15.20;;;20.10;99.90;;;;;;5056853;28;20424;-72
2022/08/19 05:11:52;;;;;;;23.13;16.43;;;20.00;99.90;;;;;;5061396;28;20436;-71
2022/08/19 05:14:38;;;;;;;29.60;16.97;;;20.00;99.90;;;;;;5051374;28;20478;-72
2022/08/19 05:17:25;;;;;;;19.50;15.90;;;19.90;99.90;;;;;;5049301;28;20434;-72
2022/08/19 05:23:15;;;;;;;19.60;15.63;;;19.90;99.90;;;;;;5052328;28;20571;-71
2022/08/19 05:26:01;;;;;;;17.10;15.03;;;19.90;99.90;;;;;;5063140;28;21060;-71
2022/08/19 05:28:46;;;;;;;17.50;15.37;;;20.00;99.90;;;;;;5056501;28;20940;-71
2022/08/19 05:31:32;;;;;;;19.00;15.80;;;20.00;99.90;;;;;;5056622;28;20952;-71
2022/08/19 05:34:22;;;;;;;16.90;15.00;;;20.10;99.90;;;;;;5051944;28;20474;-71
2022/08/19 05:37:08;;;;;;;17.20;14.80;;;20.20;99.90;;;;;;5052075;28;20578;-71
2022/08/19 05:39:54;;;;;;;30.13;15.80;;;20.20;99.90;;;;;;5059074;28;20432;-71
2022/08/19 05:42:39;;;;;;;17.47;15.53;;;20.30;99.90;;;;;;5050247;28;20452;-72
2022/08/19 05:45:25;;;;;;;19.97;16.33;;;20.30;99.90;;;;;;5051193;28;20422;-72
2022/08/19 05:48:12;;;;;;;25.23;16.60;;;20.40;99.90;;;;;;5061823;28;20427;-71
2022/08/19 05:51:04;;;;;;;22.47;16.00;;;20.50;99.90;;;;;;5061468;28;20562;-71
2022/08/19 05:53:50;;;;;;;22.20;17.60;;;20.50;99.90;;;;;;5058199;28;20487;-72
2022/08/19 05:56:37;;;;;;;19.83;17.53;;;20.50;99.90;;;;;;5064117;28;20431;-72
2022/08/19 05:59:23;;;;;;;21.30;16.43;;;20.50;99.90;;;;;;5061190;28;20418;-72
2022/08/19 06:02:09;;;;;;;17.77;15.90;;;20.50;99.90;;;;;;5056252;28;20944;-72
2022/08/19 06:04:54;;;;;;;18.93;16.93;;;20.60;99.90;;;;;;5056765;28;20443;-72
2022/08/19 06:07:41;;;;;;;20.47;18.27;;;20.70;99.90;;;;;;5060110;28;20423;-72
2022/08/19 06:10:27;;;;;;;25.43;16.57;;;20.80;99.90;;;;;;5058997;28;20490;-72
2022/08/19 06:13:13;;;;;;;22.70;16.73;;;20.80;99.90;;;;;;5055262;28;20467;-72
2022/08/19 06:15:58;;;;;;;18.13;15.43;;;20.80;99.90;;;;;;5062586;28;20517;-72
2022/08/19 06:18:44;;;;;;;22.77;16.80;;;20.90;99.90;;;;;;5055234;28;20443;-72
2022/08/19 06:21:31;;;;;;;17.57;15.67;;;21.00;99.90;;;;;;5067012;28;20427;-71
2022/08/19 06:24:23;;;;;;;17.23;15.43;;;21.10;99.90;;;;;;5059216;28;20450;-72
2022/08/19 06:27:08;;;;;;;19.10;17.13;;;21.20;99.90;;;;;;5064090;28;21054;-72
2022/08/19 06:29:54;;;;;;;17.10;14.97;;;21.20;99.90;;;;;;5062354;28;20432;-72
2022/08/19 06:32:40;;;;;;;19.57;16.33;;;21.30;99.90;;;;;;5053473;28;20444;-72
2022/08/19 06:35:26;;;;;;;19.47;17.47;;;21.40;99.90;;;;;;5060164;28;20496;-72
2022/08/19 06:38:12;;;;;;;17.87;15.97;;;21.40;99.90;;;;;;5058323;28;20403;-72
2022/08/19 06:41:03;;;;;;;17.23;15.43;;;21.50;99.90;;;;;;5058295;28;20509;-72
2022/08/19 06:43:49;;;;;;;20.43;15.70;;;21.50;99.90;;;;;;5054759;28;20561;-72
2022/08/19 06:46:36;;;;;;;20.37;15.70;;;21.60;99.90;;;;;;5056888;28;20558;-71
2022/08/19 06:49:22;;;;;;;16.13;14.43;;;21.60;99.90;;;;;;5052603;28;20424;-71
2022/08/19 06:52:07;;;;;;;18.07;15.00;;;21.70;99.90;;;;;;5052081;28;20447;-72
2022/08/19 06:54:55;;;;;;;15.87;14.27;;;21.80;99.90;;;;;;5057393;28;20471;-72
2022/08/19 06:57:45;;;;;;;17.50;15.10;;;21.80;99.90;;;;;;5049922;28;20435;-72
2022/08/19 07:00:31;;;;;;;18.50;15.27;;;22.00;99.90;;;;;;5055227;28;20420;-72
2022/08/19 07:03:17;;;;;;;24.23;14.90;;;22.10;99.90;;;;;;5054391;28;20463;-72
2022/08/19 07:06:04;;;;;;;19.87;14.90;;;22.10;99.90;;;;;;5061944;28;20944;-72
2022/08/19 07:08:51;;;;;;;17.87;15.47;;;22.10;99.90;;;;;;5060630;28;20506;-72
2022/08/19 07:11:36;;;;;;;17.03;12.80;;;22.10;99.90;;;;;;5055301;28;20478;-71
2022/08/19 07:14:26;;;;;;;18.23;12.63;;;22.20;99.90;;;;;;5056311;28;20999;-71
2022/08/19 07:17:14;;;;;;;16.53;12.40;;;22.10;99.90;;;;;;5062947;28;20558;-71
2022/08/19 07:20:00;;;;;;;13.07;11.50;;;22.20;99.90;;;;;;5061714;28;20431;-71
2022/08/19 07:22:45;;;;;;;22.83;13.87;;;22.30;99.90;;;;;;5054476;28;20501;-71
2022/08/19 07:25:31;;;;;;;15.80;12.67;;;22.50;99.90;;;;;;5060105;28;20422;-72
2022/08/19 07:28:18;;;;;;;15.50;12.50;;;22.70;99.90;;;;;;5057205;28;20530;-72
2022/08/19 07:31:06;;;;;;;18.67;12.87;;;22.80;99.90;;;;;;5061184;28;20424;-72
2022/08/19 07:33:55;;;;;;;16.53;12.40;;;22.70;99.90;;;;;;5049175;28;21008;-72
2022/08/19 07:36:42;;;;;;;21.40;12.63;;;22.60;99.90;;;;;;5054322;28;20432;-72
2022/08/19 07:39:30;;;;;;;16.20;11.30;;;22.60;99.90;;;;;;5058873;28;20956;-72
2022/08/19 07:42:16;;;;;;;15.23;11.43;;;22.60;99.90;;;;;;5054342;28;20510;-72
2022/08/19 07:45:03;;;;;;;14.73;12.17;;;22.60;99.90;;;;;;5060251;28;20550;-72
2022/08/19 07:47:50;;;;;;;16.50;12.03;;;22.60;99.90;;;;;;5048843;28;20420;-72
2022/08/19 07:50:36;;;;;;;13.53;10.27;;;22.50;99.90;;;;;;5054946;28;20777;-72
2022/08/19 07:53:22;;;;;;;34.37;11.60;;;22.60;99.90;;;;;;5060445;28;20532;-72
2022/08/19 07:56:09;;;;;;;18.70;12.00;;;22.60;99.90;;;;;;5052224;28;20941;-72
2022/08/19 07:58:54;;;;;;;12.17;10.97;;;22.60;99.90;;;;;;5054728;28;20567;-71
2022/08/19 08:01:40;;;;;;;14.10;11.60;;;22.70;99.90;;;;;;5056565;28;20558;-72
2022/08/19 08:10:34;;;;;;;14.93;10.97;;;22.90;98.70;;;;;;5052366;28;20450;-72
2022/08/19 08:13:20;;;;;;;14.50;11.03;;;23.00;98.50;;;;;;5048473;28;21042;-72
2022/08/19 08:16:06;;;;;;;14.80;10.40;;;23.10;98.50;;;;;;5056977;28;20423;-72
2022/08/19 08:18:53;;;;;;;11.37;10.03;;;23.20;97.70;;;;;;5060448;28;20553;-72
2022/08/19 08:21:40;;;;;;;15.93;12.80;;;23.20;97.60;;;;;;5055202;28;20562;-72
2022/08/19 08:24:28;;;;;;;13.90;11.20;;;23.40;96.40;;;;;;5066156;28;20465;-71
2022/08/19 08:27:15;;;;;;;21.70;12.60;;;23.50;95.60;;;;;;5058744;28;20434;-72
2022/08/19 08:30:01;;;;;;;14.53;10.70;;;23.50;94.70;;;;;;5058535;28;20440;-72
2022/08/19 08:32:47;;;;;;;14.53;11.63;;;23.50;93.40;;;;;;5044371;28;20490;-72
2022/08/19 08:35:34;;;;;;;12.70;10.67;;;23.50;94.00;;;;;;5054336;28;20468;-72
2022/08/19 08:38:21;;;;;;;15.80;9.90;;;23.70;92.70;;;;;;5052943;28;20546;-72
2022/08/19 08:41:18;;;;;;;13.40;9.97;;;23.80;92.20;;;;;;5056441;28;20915;-71
2022/08/19 08:44:05;;;;;;;14.17;9.67;;;23.90;90.10;;;;;;5055944;28;21068;-72
2022/08/19 08:46:54;;;;;;;12.53;9.93;;;24.00;89.10;;;;;;5049177;28;20978;-72
2022/08/19 08:49:47;;;;;;;17.43;10.50;;;24.20;87.00;;;;;;5055111;28;20433;-72
2022/08/19 08:52:36;;;;;;;12.40;9.70;;;24.30;85.10;;;;;;5050468;28;20443;-72
2022/08/19 08:55:26;;;;;;;12.10;8.80;;;24.30;84.00;;;;;;5053667;28;20829;-72
2022/08/19 08:58:18;;;;;;;12.63;10.10;;;24.50;82.10;;;;;;5058399;28;20478;-72
2022/08/19 09:01:04;;;;;;;93.47;83.77;;;24.50;77.90;;;;;;5051564;28;20473;-72
2022/08/19 09:03:49;;;;;;;16.80;14.70;;;24.50;78.20;;;;;;5053837;28;20451;-72
2022/08/19 09:06:42;;;;;;;14.00;8.00;;;24.50;77.60;;;;;;5061976;28;20427;-72
2022/08/19 09:09:34;;;;;;;16.07;14.40;;;24.60;75.70;;;;;;5055151;28;20428;-72
2022/08/19 09:12:31;;;;;;;12.17;9.70;;;24.50;74.30;;;;;;5050024;28;20455;-72
2022/08/19 09:15:23;;;;;;;89.20;71.23;;;24.50;73.20;;;;;;5058657;28;20459;-71
2022/08/19 09:18:09;;;;;;;17.87;12.57;;;24.30;72.60;;;;;;5054147;28;20513;-72
2022/08/19 09:20:56;;;;;;;32.67;27.60;;;24.20;73.50;;;;;;5055784;28;20432;-71
2022/08/19 09:23:42;;;;;;;101.07;90.60;;;24.30;73.50;;;;;;5055556;28;20518;-71
2022/08/19 09:26:29;;;;;;;19.23;14.17;;;24.20;73.70;;;;;;5054984;28;20495;-71
2022/08/19 09:29:16;;;;;;;22.50;18.07;;;24.30;74.40;;;;;;5058383;28;20426;-71
2022/08/19 09:32:03;;;;;;;50.43;37.03;;;24.50;72.70;;;;;;5048626;28;20864;-72
2022/08/19 09:34:49;;;;;;;32.43;27.67;;;24.50;72.00;;;;;;5055396;28;20479;-72
2022/08/19 09:37:35;;;;;;;434.00;343.73;;;24.50;71.30;;;;;;5059353;28;20788;-72
2022/08/19 09:40:21;;;;;;;103.37;78.53;;;24.60;71.00;;;;;;5055434;28;20416;-72
2022/08/19 09:43:08;;;;;;;42.63;34.10;;;24.70;68.70;;;;;;5053758;28;20880;-71
2022/08/19 09:45:55;;;;;;;30.23;24.73;;;24.90;66.90;;;;;;5053823;28;20418;-72
2022/08/19 09:48:42;;;;;;;48.20;38.93;;;25.00;66.80;;;;;;5053215;28;20517;-72
2022/08/19 09:51:29;;;;;;;135.00;101.67;;;25.00;66.50;;;;;;5047291;28;21197;-72
2022/08/19 09:54:16;;;;;;;88.47;68.93;;;24.90;65.70;;;;;;5054873;28;20529;-72
2022/08/19 09:57:02;;;;;;;16.00;12.73;;;24.70;65.60;;;;;;5054165;28;20557;-72
2022/08/19 09:59:48;;;;;;;58.93;51.00;;;24.70;66.40;;;;;;5050101;28;20432;-72
2022/08/19 10:02:36;;;;;;;16.67;14.83;;;24.80;67.00;;;;;;5051914;28;20475;-72
2022/08/19 10:08:27;;;;;;;11.63;7.70;;;25.10;66.60;;;;;;5051601;28;20828;-72
2022/08/19 10:11:15;;;;;;;7.60;6.70;;;25.40;65.80;;;;;;5047967;28;20579;-72
2022/08/19 10:14:01;;;;;;;9.60;6.37;;;25.50;63.20;;;;;;5057982;28;20454;-72
2022/08/19 10:16:47;;;;;;;11.57;6.90;;;25.60;63.40;;;;;;5057240;28;20423;-72
2022/08/19 10:19:35;;;;;;;8.80;6.93;;;25.60;62.50;;;;;;5050712;28;20419;-72
2022/08/19 10:22:21;;;;;;;6.40;5.80;;;25.50;62.30;;;;;;5048507;28;20526;-72
2022/08/19 10:25:08;;;;;;;8.53;5.90;;;25.30;62.30;;;;;;5057696;28;20513;-72
2022/08/19 10:27:54;;;;;;;8.97;5.70;;;25.30;62.50;;;;;;5054829;28;20940;-72
2022/08/19 10:30:41;;;;;;;7.00;5.57;;;25.40;62.70;;;;;;5051546;28;20439;-72
2022/08/19 10:33:27;;;;;;;7.97;5.87;;;25.60;62.70;;;;;;5061630;28;20450;-72
2022/08/19 10:36:17;;;;;;;6.90;5.93;;;25.80;60.10;;;;;;5058757;28;20482;-72
2022/08/19 10:39:05;;;;;;;10.80;5.57;;;26.00;58.90;;;;;;5060855;28;20420;-72
2022/08/19 10:41:50;;;;;;;11.63;5.90;;;26.00;58.30;;;;;;5054107;28;20466;-72
2022/08/19 10:44:36;;;;;;;6.43;5.80;;;25.90;53.40;;;;;;5055308;28;20450;-72
2022/08/19 10:47:23;;;;;;;5.40;4.63;;;25.80;54.00;;;;;;5062489;28;20427;-72
2022/08/19 10:53:14;;;;;;;8.30;6.00;;;26.10;54.00;;;;;;5057815;28;20440;-72
2022/08/19 10:59:03;;;;;;;7.73;5.97;;;26.30;52.50;;;;;;5051840;28;20411;-72
2022/08/19 11:01:50;;;;;;;6.73;5.90;;;26.30;51.40;;;;;;5051956;28;20448;-72
2022/08/19 11:04:35;;;;;;;6.80;5.87;;;26.40;50.70;;;;;;5055583;28;20451;-72
2022/08/19 11:07:21;;;;;;;10.30;7.07;;;26.30;50.60;;;;;;5061218;28;20427;-72
2022/08/19 11:10:13;;;;;;;7.97;6.07;;;26.30;51.00;;;;;;5052909;28;20835;-72
2022/08/19 11:13:00;;;;;;;7.33;6.60;;;26.40;53.10;;;;;;5053255;28;20540;-72
2022/08/19 11:15:47;;;;;;;8.17;6.60;;;26.60;49.70;;;;;;5063180;28;21003;-72
2022/08/19 11:18:32;;;;;;;9.00;5.70;;;26.80;49.60;;;;;;5053264;28;20423;-72
2022/08/19 11:21:20;;;;;;;7.30;6.20;;;26.80;47.90;;;;;;5057824;28;20447;-72
2022/08/19 11:24:08;;;;;;;7.07;6.37;;;26.70;48.30;;;;;;5057523;28;20463;-72
2022/08/19 11:27:04;;;;;;;8.00;7.00;;;26.70;48.90;;;;;;5058544;28;20419;-72
2022/08/19 11:29:50;;;;;;;8.00;6.33;;;26.80;49.00;;;;;;5054848;28;20956;-72
2022/08/19 11:32:36;;;;;;;7.60;6.80;;;26.80;48.20;;;;;;5061559;28;20426;-72
2022/08/19 11:35:21;;;;;;;9.23;7.00;;;26.70;47.30;;;;;;5056362;28;20478;-72
2022/08/19 11:38:07;;;;;;;8.00;7.07;;;26.60;47.90;;;;;;5065317;28;20801;-72
2022/08/19 11:40:57;;;;;;;10.13;6.47;;;26.60;47.00;;;;;;5046711;28;20514;-72
2022/08/19 11:43:44;;;;;;;10.67;7.00;;;26.70;46.30;;;;;;5056137;28;20459;-72
2022/08/19 11:46:30;;;;;;;9.80;7.33;;;26.80;43.90;;;;;;5055730;28;20420;-72
2022/08/19 11:49:19;;;;;;;7.37;6.63;;;26.70;42.40;;;;;;5052332;28;20427;-72
2022/08/19 11:52:05;;;;;;;7.97;7.17;;;26.70;40.90;;;;;;5054885;28;20423;-72
2022/08/19 11:54:51;;;;;;;7.17;6.43;;;26.80;40.30;;;;;;5057818;28;20442;-71
2022/08/19 11:57:36;;;;;;;7.37;6.23;;;26.80;40.70;;;;;;5052762;28;20427;-71
2022/08/19 12:00:24;;;;;;;10.67;6.90;;;26.90;39.70;;;;;;5058590;28;20500;-71
2022/08/19 12:03:09;;;;;;;9.90;5.70;;;27.10;39.70;;;;;;5059561;28;20833;-71
2022/08/19 12:05:55;;;;;;;8.70;6.07;;;27.40;36.80;;;;;;5055915;28;20428;-72
2022/08/19 12:08:42;;;;;;;10.30;7.50;;;27.60;35.90;;;;;;5065148;28;20474;-71
2022/08/19 12:11:28;;;;;;;7.20;6.53;;;27.80;36.50;;;;;;5053046;28;20451;-72
2022/08/19 12:14:14;;;;;;;7.47;6.77;;;27.90;35.00;;;;;;5057775;28;20451;-72
2022/08/19 12:17:01;;;;;;;9.10;6.73;;;28.10;33.10;;;;;;5051915;28;20467;-71
2022/08/19 12:19:47;;;;;;;9.10;8.30;;;28.20;33.20;;;;;;5047739;28;20521;-71
2022/08/19 12:22:32;;;;;;;9.27;7.27;;;28.00;31.00;;;;;;5056560;28;20452;-72
2022/08/19 12:25:18;;;;;;;8.87;7.40;;;27.80;29.90;;;;;;5053469;28;20567;-72
2022/08/19 12:28:05;;;;;;;9.10;7.80;;;27.90;30.10;;;;;;5046973;28;20566;-71
2022/08/19 12:30:51;;;;;;;8.97;8.17;;;28.20;30.30;;;;;;5049690;28;20575;-72
2022/08/19 12:33:38;;;;;;;16.23;10.30;;;28.50;30.50;;;;;;5057434;28;20438;-71
2022/08/19 12:36:25;;;;;;;12.07;10.83;;;28.50;30.90;;;;;;5057585;28;20470;-71
2022/08/19 12:39:10;;;;;;;11.97;10.90;;;28.60;31.40;;;;;;5056297;28;20467;-71
2022/08/19 12:41:57;;;;;;;11.10;10.00;;;28.60;31.00;;;;;;5051756;28;20423;-71
2022/08/19 12:44:44;;;;;;;18.50;10.57;;;28.70;30.10;;;;;;5055951;28;20458;-71
2022/08/19 12:47:30;;;;;;;13.93;10.60;;;28.70;30.30;;;;;;5056539;28;20493;-72
2022/08/19 12:50:17;;;;;;;13.60;9.80;;;28.80;29.60;;;;;;5048682;28;20828;-71
2022/08/19 12:53:03;;;;;;;10.50;9.60;;;28.60;29.90;;;;;;5056898;28;20516;-72
2022/08/19 12:55:48;;;;;;;10.37;9.37;;;28.90;29.30;;;;;;5056567;28;20475;-71
2022/08/19 12:58:35;;;;;;;11.40;9.90;;;29.10;28.10;;;;;;5051077;28;20435;-71
2022/08/19 13:01:21;;;;;;;10.63;9.50;;;29.30;27.80;;;;;;5057433;28;20464;-72
2022/08/19 13:04:07;;;;;;;8.73;7.93;;;29.30;27.50;;;;;;5058534;28;20451;-71
2022/08/19 13:06:54;;;;;;;11.03;7.53;;;29.50;26.60;;;;;;5055729;28;20428;-72
2022/08/19 13:09:41;;;;;;;10.33;8.70;;;29.60;25.80;;;;;;5052538;28;20467;-71
2022/08/19 13:12:27;;;;;;;9.07;8.20;;;29.40;25.70;;;;;;5053026;28;20423;-72
2022/08/19 13:15:13;;;;;;;8.17;7.37;;;29.50;26.50;;;;;;5058080;28;20451;-72
2022/08/19 13:17:59;;;;;;;10.03;8.17;;;29.40;26.00;;;;;;5059535;28;20431;-72
2022/08/19 13:20:45;;;;;;;7.90;7.10;;;29.60;26.30;;;;;;5050649;28;20608;-72
2022/08/19 13:23:32;;;;;;;12.83;7.70;;;29.70;26.00;;;;;;5053389;28;20435;-71
2022/08/19 13:26:18;;;;;;;8.00;6.40;;;29.40;26.10;;;;;;5056759;28;20411;-72
2022/08/19 13:35:10;;;;;;;7.27;5.80;;;29.50;24.20;;;;;;5054421;28;20407;-71
2022/08/19 13:37:56;;;;;;;7.13;6.43;;;29.20;25.20;;;;;;5060085;28;20436;-72
2022/08/19 13:40:43;;;;;;;7.03;6.07;;;29.40;25.70;;;;;;5050513;28;20412;-72
2022/08/19 13:43:29;;;;;;;8.80;5.93;;;29.50;24.90;;;;;;5052945;28;20452;-72
2022/08/19 13:46:14;;;;;;;6.30;5.70;;;29.40;24.90;;;;;;5054358;28;20423;-72
2022/08/19 13:49:00;;;;;;;6.10;4.80;;;29.60;24.30;;;;;;5050517;28;20941;-71
2022/08/19 13:51:45;;;;;;;6.13;5.53;;;29.40;23.10;;;;;;5059306;28;20427;-71
2022/08/19 13:54:31;;;;;;;6.50;5.30;;;29.20;23.50;;;;;;5059652;28;20446;-71
2022/08/19 13:57:18;;;;;;;5.97;5.37;;;28.90;24.10;;;;;;5056185;28;20467;-71
2022/08/19 14:00:06;;;;;;;7.60;5.60;;;28.90;25.10;;;;;;5051063;28;20539;-71
2022/08/19 14:02:53;;;;;;;9.93;5.87;;;28.90;25.40;;;;;;5053058;28;20419;-71
2022/08/19 14:05:40;;;;;;;5.80;5.20;;;28.90;24.60;;;;;;5055525;28;20428;-71
2022/08/19 14:08:27;;;;;;;10.80;6.10;;;28.70;24.70;;;;;;5051745;28;21018;-71
2022/08/19 14:11:13;;;;;;;7.20;5.80;;;28.40;25.10;;;;;;5055089;28;20935;-71
2022/08/19 14:14:00;;;;;;;6.80;5.70;;;28.50;25.30;;;;;;5065821;28;20546;-72
2022/08/19 14:16:46;;;;;;;7.60;6.30;;;28.50;25.50;;;;;;5054598;28;20486;-72
2022/08/19 14:19:32;;;;;;;6.10;5.30;;;28.60;25.70;;;;;;5050020;28;20452;-72
2022/08/19 14:22:18;;;;;;;6.77;6.17;;;28.70;25.40;;;;;;5060018;28;20426;-72
2022/08/19 14:25:05;;;;;;;7.77;5.83;;;28.70;25.70;;;;;;5058646;28;20423;-72
2022/08/19 14:27:52;;;;;;;6.73;6.00;;;28.80;25.70;;;;;;5061472;28;20431;-72
2022/08/19 14:30:39;;;;;;;6.43;5.83;;;29.00;25.00;;;;;;5059361;28;20446;-72
2022/08/19 14:33:25;;;;;;;9.63;6.40;;;29.10;25.00;;;;;;5056262;28;20821;-72
2022/08/19 14:36:10;;;;;;;6.70;5.80;;;29.40;25.00;;;;;;5058619;28;20479;-72
2022/08/19 14:38:57;;;;;;;17.13;5.90;;;29.60;24.40;;;;;;5053418;28;21015;-72
2022/08/19 14:41:43;;;;;;;7.43;6.53;;;29.80;24.40;;;;;;5059800;28;20470;-72